sensor_id;sensor_type;location;lat;lon;timestamp;pressure;altitude;pressure_sealevel;temperature;humidity
39197;BME280;42889;51.112;13.772;2022-08-19T00:01:23;98345.66;;;21.42;86.19
39197;BME280;42889;51.112;13.772;2022-08-19T00:03:57;98344.63;;;21.43;86.35
39197;BME280;42889;51.112;13.772;2022-08-19T00:06:26;98354.31;;;21.34;86.93
39197;BME280;42889;51.112;13.772;2022-08-19T00:08:52;98364.84;;;21.42;87.03
39197;BME280;42889;51.112;13.772;2022-08-19T00:11:19;98361.34;;;21.30;87.91
39197;BME280;42889;51.112;13.772;2022-08-19T00:13:51;98349.66;;;21.35;87.43
39197;BME280;42889;51.112;13.772;2022-08-19T00:16:19;98348.31;;;21.37;87.64
39197;BME280;42889;51.112;13.772;2022-08-19T00:18:51;98344.91;;;21.30;88.05
39197;BME280;42889;51.112;13.772;2022-08-19T00:21:18;98346.63;;;21.19;88.72
39197;BME280;42889;51.112;13.772;2022-08-19T00:23:44;98354.59;;;21.21;89.07
39197;BME280;42889;51.112;13.772;2022-08-19T00:26:11;98361.56;;;21.28;88.85
39197;BME280;42889;51.112;13.772;2022-08-19T00:28:38;98371.66;;;21.11;90.16
39197;BME280;42889;51.112;13.772;2022-08-19T00:31:06;98376.63;;;21.14;90.45
39197;BME280;42889;51.112;13.772;2022-08-19T00:33:33;98377.13;;;21.11;90.63
39197;BME280;42889;51.112;13.772;2022-08-19T00:36:01;98382.44;;;21.18;90.40
39197;BME280;42889;51.112;13.772;2022-08-19T00:38:30;98382.28;;;21.24;90.25
39197;BME280;42889;51.112;13.772;2022-08-19T00:41:04;98380.97;;;21.27;90.10
39197;BME280;42889;51.112;13.772;2022-08-19T00:43:31;98387.91;;;21.18;90.90
39197;BME280;42889;51.112;13.772;2022-08-19T00:45:58;98396.31;;;21.28;90.21
39197;BME280;42889;51.112;13.772;2022-08-19T00:48:24;98396.31;;;21.28;90.55
39197;BME280;42889;51.112;13.772;2022-08-19T00:50:53;98392.97;;;21.26;90.98
39197;BME280;42889;51.112;13.772;2022-08-19T00:53:23;98379.22;;;21.21;91.29
39197;BME280;42889;51.112;13.772;2022-08-19T00:55:53;98369.66;;;21.35;90.68
39197;BME280;42889;51.112;13.772;2022-08-19T00:58:26;98372.41;;;21.23;91.57
39197;BME280;42889;51.112;13.772;2022-08-19T01:00:53;98372.69;;;21.22;92.13
39197;BME280;42889;51.112;13.772;2022-08-19T01:03:22;98365.28;;;21.22;92.68
39197;BME280;42889;51.112;13.772;2022-08-19T01:05:51;98378.31;;;21.15;93.17
39197;BME280;42889;51.112;13.772;2022-08-19T01:08:19;98375.22;;;21.12;93.56
39197;BME280;42889;51.112;13.772;2022-08-19T01:10:52;98361.13;;;21.20;93.31
39197;BME280;42889;51.112;13.772;2022-08-19T01:13:23;98366.50;;;21.15;94.04
39197;BME280;42889;51.112;13.772;2022-08-19T01:16:01;98365.16;;;21.00;95.46
39197;BME280;42889;51.112;13.772;2022-08-19T01:18:28;98372.09;;;20.91;96.21
39197;BME280;42889;51.112;13.772;2022-08-19T01:21:15;98369.97;;;20.82;97.16
39197;BME280;42889;51.112;13.772;2022-08-19T01:23:44;98379.16;;;20.75;97.90
39197;BME280;42889;51.112;13.772;2022-08-19T01:26:16;98380.00;;;20.76;98.16
39197;BME280;42889;51.112;13.772;2022-08-19T01:28:46;98385.25;;;20.77;98.16
39197;BME280;42889;51.112;13.772;2022-08-19T01:31:22;98398.66;;;20.79;98.51
39197;BME280;42889;51.112;13.772;2022-08-19T01:33:55;98397.34;;;20.82;98.61
39197;BME280;42889;51.112;13.772;2022-08-19T01:36:35;98397.69;;;20.85;97.87
39197;BME280;42889;51.112;13.772;2022-08-19T01:39:05;98394.22;;;20.90;97.85
39197;BME280;42889;51.112;13.772;2022-08-19T01:41:32;98391.75;;;20.76;98.67
39197;BME280;42889;51.112;13.772;2022-08-19T01:43:58;98386.66;;;20.80;98.97
39197;BME280;42889;51.112;13.772;2022-08-19T01:46:45;98383.34;;;20.78;98.60
39197;BME280;42889;51.112;13.772;2022-08-19T01:49:14;98382.78;;;20.93;97.62
39197;BME280;42889;51.112;13.772;2022-08-19T01:51:40;98372.25;;;20.85;98.17
39197;BME280;42889;51.112;13.772;2022-08-19T01:54:09;98375.13;;;20.78;98.86
39197;BME280;42889;51.112;13.772;2022-08-19T01:56:35;98380.09;;;20.81;98.04
39197;BME280;42889;51.112;13.772;2022-08-19T01:59:16;98385.66;;;20.86;97.83
39197;BME280;42889;51.112;13.772;2022-08-19T02:01:43;98400.41;;;20.85;98.21
39197;BME280;42889;51.112;13.772;2022-08-19T02:04:10;98405.28;;;20.95;97.61
39197;BME280;42889;51.112;13.772;2022-08-19T02:06:37;98402.19;;;20.91;97.69
39197;BME280;42889;51.112;13.772;2022-08-19T02:09:06;98389.97;;;20.82;98.63
39197;BME280;42889;51.112;13.772;2022-08-19T02:11:34;98384.13;;;20.90;98.32
39197;BME280;42889;51.112;13.772;2022-08-19T02:14:04;98372.91;;;20.92;98.45
39197;BME280;42889;51.112;13.772;2022-08-19T02:16:32;98351.41;;;20.67;99.82
39197;BME280;42889;51.112;13.772;2022-08-19T02:18:59;98335.47;;;20.64;99.87
39197;BME280;42889;51.112;13.772;2022-08-19T02:21:28;98341.28;;;20.67;99.75
39197;BME280;42889;51.112;13.772;2022-08-19T02:23:55;98347.16;;;20.47;100.00
39197;BME280;42889;51.112;13.772;2022-08-19T02:26:22;98371.72;;;20.59;100.00
39197;BME280;42889;51.112;13.772;2022-08-19T02:28:49;98382.09;;;20.57;100.00
39197;BME280;42889;51.112;13.772;2022-08-19T02:31:19;98387.56;;;20.57;100.00
39197;BME280;42889;51.112;13.772;2022-08-19T02:33:47;98384.69;;;20.64;100.00
39197;BME280;42889;51.112;13.772;2022-08-19T02:36:15;98385.66;;;20.58;100.00
39197;BME280;42889;51.112;13.772;2022-08-19T02:38:46;98392.41;;;20.67;100.00
39197;BME280;42889;51.112;13.772;2022-08-19T02:43:53;98374.41;;;20.71;100.00
39197;BME280;42889;51.112;13.772;2022-08-19T02:46:40;98364.78;;;20.80;100.00
39197;BME280;42889;51.112;13.772;2022-08-19T02:49:07;98369.06;;;20.76;100.00
39197;BME280;42889;51.112;13.772;2022-08-19T02:51:36;98374.91;;;20.68;100.00
39197;BME280;42889;51.112;13.772;2022-08-19T02:54:04;98367.75;;;20.78;100.00
39197;BME280;42889;51.112;13.772;2022-08-19T02:56:32;98377.50;;;20.74;100.00
39197;BME280;42889;51.112;13.772;2022-08-19T02:59:00;98383.47;;;20.71;100.00
39197;BME280;42889;51.112;13.772;2022-08-19T03:01:29;98389.03;;;20.76;100.00
39197;BME280;42889;51.112;13.772;2022-08-19T03:03:58;98397.94;;;20.84;100.00
39197;BME280;42889;51.112;13.772;2022-08-19T03:06:26;98399.38;;;20.74;100.00
39197;BME280;42889;51.112;13.772;2022-08-19T03:08:54;98390.94;;;20.76;100.00
39197;BME280;42889;51.112;13.772;2022-08-19T03:11:28;98400.22;;;20.75;100.00
39197;BME280;42889;51.112;13.772;2022-08-19T03:13:56;98396.13;;;20.89;99.36
39197;BME280;42889;51.112;13.772;2022-08-19T03:16:25;98390.06;;;20.87;99.28
39197;BME280;42889;51.112;13.772;2022-08-19T03:18:53;98378.91;;;20.89;98.88
39197;BME280;42889;51.112;13.772;2022-08-19T03:21:22;98373.28;;;20.95;99.21
39197;BME280;42889;51.112;13.772;2022-08-19T03:24:04;98373.91;;;20.86;99.49
39197;BME280;42889;51.112;13.772;2022-08-19T03:26:32;98380.25;;;20.74;99.96
39197;BME280;42889;51.112;13.772;2022-08-19T03:29:04;98379.22;;;20.92;98.96
39197;BME280;42889;51.112;13.772;2022-08-19T03:31:31;98379.88;;;20.71;99.74
39197;BME280;42889;51.112;13.772;2022-08-19T03:34:25;98393.66;;;20.76;100.00
39197;BME280;42889;51.112;13.772;2022-08-19T03:36:57;98397.00;;;20.78;100.00
39197;BME280;42889;51.112;13.772;2022-08-19T03:39:25;98391.91;;;20.70;100.00
39197;BME280;42889;51.112;13.772;2022-08-19T03:41:53;98397.00;;;20.78;99.76
39197;BME280;42889;51.112;13.772;2022-08-19T03:44:43;98396.59;;;20.86;99.20
39197;BME280;42889;51.112;13.772;2022-08-19T03:47:11;98402.38;;;20.73;100.00
39197;BME280;42889;51.112;13.772;2022-08-19T03:49:42;98401.31;;;20.62;100.00
39197;BME280;42889;51.112;13.772;2022-08-19T03:52:09;98398.44;;;20.69;99.97
39197;BME280;42889;51.112;13.772;2022-08-19T03:54:36;98397.97;;;20.60;100.00
39197;BME280;42889;51.112;13.772;2022-08-19T03:57:04;98400.34;;;20.68;100.00
39197;BME280;42889;51.112;13.772;2022-08-19T03:59:34;98405.56;;;20.70;100.00
39197;BME280;42889;51.112;13.772;2022-08-19T04:02:03;98407.97;;;20.66;100.00
39197;BME280;42889;51.112;13.772;2022-08-19T04:04:31;98414.81;;;20.81;99.45
39197;BME280;42889;51.112;13.772;2022-08-19T04:06:57;98412.53;;;20.89;98.64
39197;BME280;42889;51.112;13.772;2022-08-19T04:09:24;98400.91;;;20.82;99.10
39197;BME280;42889;51.112;13.772;2022-08-19T04:11:53;98408.06;;;20.83;98.66
39197;BME280;42889;51.112;13.772;2022-08-19T04:14:23;98416.94;;;20.90;98.42
39197;BME280;42889;51.112;13.772;2022-08-19T04:16:51;98410.69;;;20.78;99.39
39197;BME280;42889;51.112;13.772;2022-08-19T04:19:18;98409.84;;;20.77;99.19
39197;BME280;42889;51.112;13.772;2022-08-19T04:21:47;98404.66;;;20.93;98.08
39197;BME280;42889;51.112;13.772;2022-08-19T04:24:15;98398.88;;;20.89;98.65
39197;BME280;42889;51.112;13.772;2022-08-19T04:26:42;98388.94;;;20.71;99.55
39197;BME280;42889;51.112;13.772;2022-08-19T04:29:15;98395.19;;;20.84;99.02
39197;BME280;42889;51.112;13.772;2022-08-19T04:31:43;98396.66;;;20.74;99.60
39197;BME280;42889;51.112;13.772;2022-08-19T04:34:13;98396.53;;;20.69;100.00
39197;BME280;42889;51.112;13.772;2022-08-19T04:36:42;98406.19;;;20.72;100.00
39197;BME280;42889;51.112;13.772;2022-08-19T04:39:15;98412.94;;;20.69;100.00
39197;BME280;42889;51.112;13.772;2022-08-19T04:41:43;98405.56;;;20.70;100.00
39197;BME280;42889;51.112;13.772;2022-08-19T04:44:31;98402.13;;;20.74;100.00
39197;BME280;42889;51.112;13.772;2022-08-19T04:46:58;98398.44;;;20.69;99.70
39197;BME280;42889;51.112;13.772;2022-08-19T04:49:27;98410.81;;;20.71;100.00
39197;BME280;42889;51.112;13.772;2022-08-19T04:51:54;98415.53;;;20.76;99.35
39197;BME280;42889;51.112;13.772;2022-08-19T04:54:23;98413.31;;;20.73;99.73
39197;BME280;42889;51.112;13.772;2022-08-19T04:57:06;98421.94;;;20.93;98.59
39197;BME280;42889;51.112;13.772;2022-08-19T04:59:35;98416.47;;;20.93;97.53
39197;BME280;42889;51.112;13.772;2022-08-19T05:02:03;98414.78;;;20.92;98.38
39197;BME280;42889;51.112;13.772;2022-08-19T05:04:30;98405.94;;;21.02;97.31
39197;BME280;42889;51.112;13.772;2022-08-19T05:06:59;98410.13;;;20.93;97.66
39197;BME280;42889;51.112;13.772;2022-08-19T05:09:29;98398.56;;;21.02;96.42
39197;BME280;42889;51.112;13.772;2022-08-19T05:12:18;98403.94;;;20.97;97.20
39197;BME280;42889;51.112;13.772;2022-08-19T05:14:45;98405.94;;;21.02;96.76
39197;BME280;42889;51.112;13.772;2022-08-19T05:17:14;98423.91;;;20.98;96.54
39197;BME280;42889;51.112;13.772;2022-08-19T05:20:01;98427.41;;;20.93;97.47
39197;BME280;42889;51.112;13.772;2022-08-19T05:22:47;98431.38;;;20.74;98.24
39197;BME280;42889;51.112;13.772;2022-08-19T05:25:19;98436.94;;;20.79;98.63
39197;BME280;42889;51.112;13.772;2022-08-19T05:27:47;98447.16;;;20.84;97.82
39197;BME280;42889;51.112;13.772;2022-08-19T05:30:14;98457.50;;;20.93;97.35
39197;BME280;42889;51.112;13.772;2022-08-19T05:32:42;98459.28;;;20.88;97.41
39197;BME280;42889;51.112;13.772;2022-08-19T05:35:09;98454.50;;;20.95;97.03
39197;BME280;42889;51.112;13.772;2022-08-19T05:37:36;98467.56;;;20.93;96.82
39197;BME280;42889;51.112;13.772;2022-08-19T05:40:05;98462.97;;;20.82;97.35
39197;BME280;42889;51.112;13.772;2022-08-19T05:42:32;98476.78;;;20.75;98.22
39197;BME280;42889;51.112;13.772;2022-08-19T05:44:59;98480.00;;;20.72;98.15
39197;BME280;42889;51.112;13.772;2022-08-19T05:47:25;98485.34;;;20.67;99.06
39197;BME280;42889;51.112;13.772;2022-08-19T05:49:52;98489.78;;;20.56;99.93
39197;BME280;42889;51.112;13.772;2022-08-19T05:52:19;98500.34;;;20.52;100.00
39197;BME280;42889;51.112;13.772;2022-08-19T05:54:52;98500.34;;;20.52;100.00
39197;BME280;42889;51.112;13.772;2022-08-19T05:57:21;98508.28;;;20.54;100.00
39197;BME280;42889;51.112;13.772;2022-08-19T05:59:48;98505.78;;;20.64;99.29
39197;BME280;42889;51.112;13.772;2022-08-19T06:02:24;98509.59;;;20.63;99.49
39197;BME280;42889;51.112;13.772;2022-08-19T06:04:51;98512.69;;;20.67;99.12
39197;BME280;42889;51.112;13.772;2022-08-19T06:07:17;98517.81;;;20.63;99.64
39197;BME280;42889;51.112;13.772;2022-08-19T06:09:46;98522.19;;;20.52;100.00
39197;BME280;42889;51.112;13.772;2022-08-19T06:12:26;98525.06;;;20.46;100.00
39197;BME280;42889;51.112;13.772;2022-08-19T06:14:58;98540.13;;;20.48;100.00
39197;BME280;42889;51.112;13.772;2022-08-19T06:17:27;98548.69;;;20.40;100.00
39197;BME280;42889;51.112;13.772;2022-08-19T06:19:57;98557.34;;;20.37;100.00
39197;BME280;42889;51.112;13.772;2022-08-19T06:22:25;98561.00;;;20.31;100.00
39197;BME280;42889;51.112;13.772;2022-08-19T06:24:52;98567.91;;;20.22;100.00
39197;BME280;42889;51.112;13.772;2022-08-19T06:27:21;98571.69;;;20.21;100.00
39197;BME280;42889;51.112;13.772;2022-08-19T06:29:50;98565.63;;;20.19;100.00
39197;BME280;42889;51.112;13.772;2022-08-19T06:32:17;98571.69;;;20.21;100.00
39197;BME280;42889;51.112;13.772;2022-08-19T06:34:45;98565.38;;;20.20;100.00
39197;BME280;42889;51.112;13.772;2022-08-19T06:37:12;98574.28;;;20.16;100.00
39197;BME280;42889;51.112;13.772;2022-08-19T06:39:41;98576.66;;;20.00;100.00
39197;BME280;42889;51.112;13.772;2022-08-19T06:42:09;98576.66;;;20.00;100.00
39197;BME280;42889;51.112;13.772;2022-08-19T06:44:39;98579.13;;;20.02;100.00
39197;BME280;42889;51.112;13.772;2022-08-19T06:47:10;98572.72;;;19.96;100.00
39197;BME280;42889;51.112;13.772;2022-08-19T06:49:40;98569.75;;;19.98;100.00
39197;BME280;42889;51.112;13.772;2022-08-19T06:52:08;98568.91;;;19.97;100.00
39197;BME280;42889;51.112;13.772;2022-08-19T06:54:39;98572.72;;;19.96;100.00
39197;BME280;42889;51.112;13.772;2022-08-19T06:57:23;98589.22;;;20.02;100.00
39197;BME280;42889;51.112;13.772;2022-08-19T06:59:50;98589.00;;;20.03;100.00
39197;BME280;42889;51.112;13.772;2022-08-19T07:02:17;98597.44;;;20.02;100.00
39197;BME280;42889;51.112;13.772;2022-08-19T07:04:43;98602.06;;;20.01;100.00
39197;BME280;42889;51.112;13.772;2022-08-19T07:07:14;98605.66;;;20.13;100.00
39197;BME280;42889;51.112;13.772;2022-08-19T07:09:47;98612.53;;;20.16;100.00
39197;BME280;42889;51.112;13.772;2022-08-19T07:12:26;98604.19;;;20.11;100.00
39197;BME280;42889;51.112;13.772;2022-08-19T07:14:56;98602.69;;;20.15;100.00
39197;BME280;42889;51.112;13.772;2022-08-19T07:17:23;98599.72;;;20.16;100.00
39197;BME280;42889;51.112;13.772;2022-08-19T07:19:50;98589.00;;;20.15;100.00
39197;BME280;42889;51.112;13.772;2022-08-19T07:22:20;98580.25;;;20.24;100.00
39197;BME280;42889;51.112;13.772;2022-08-19T07:24:49;98577.41;;;20.31;100.00
39197;BME280;42889;51.112;13.772;2022-08-19T07:27:17;98576.34;;;20.32;100.00
39197;BME280;42889;51.112;13.772;2022-08-19T07:29:51;98586.56;;;20.25;100.00
39197;BME280;42889;51.112;13.772;2022-08-19T07:32:24;98601.59;;;20.16;100.00
39197;BME280;42889;51.112;13.772;2022-08-19T07:34:53;98600.78;;;20.15;100.00
39197;BME280;42889;51.112;13.772;2022-08-19T07:37:19;98600.06;;;20.08;100.00
39197;BME280;42889;51.112;13.772;2022-08-19T07:39:46;98603.03;;;20.07;100.00
39197;BME280;42889;51.112;13.772;2022-08-19T07:42:13;98605.38;;;20.03;100.00
39197;BME280;42889;51.112;13.772;2022-08-19T07:44:41;98610.97;;;20.08;100.00
39197;BME280;42889;51.112;13.772;2022-08-19T07:47:15;98609.78;;;20.04;100.00
39197;BME280;42889;51.112;13.772;2022-08-19T07:50:06;98612.28;;;20.06;100.00
39197;BME280;42889;51.112;13.772;2022-08-19T07:52:33;98607.88;;;20.05;100.00
39197;BME280;42889;51.112;13.772;2022-08-19T07:55:00;98601.00;;;20.02;100.00
39197;BME280;42889;51.112;13.772;2022-08-19T07:57:29;98594.97;;;20.12;100.00
39197;BME280;42889;51.112;13.772;2022-08-19T07:59:56;98598.41;;;20.07;100.00
39197;BME280;42889;51.112;13.772;2022-08-19T08:02:23;98603.22;;;20.05;100.00
39197;BME280;42889;51.112;13.772;2022-08-19T08:04:49;98595.16;;;19.98;100.00
39197;BME280;42889;51.112;13.772;2022-08-19T08:07:34;98601.44;;;19.99;100.00
39197;BME280;42889;51.112;13.772;2022-08-19T08:10:20;98612.59;;;19.97;100.00
39197;BME280;42889;51.112;13.772;2022-08-19T08:12:50;98613.44;;;19.98;100.00
39197;BME280;42889;51.112;13.772;2022-08-19T08:15:38;98616.84;;;19.93;100.00
39197;BME280;42889;51.112;13.772;2022-08-19T08:18:10;98616.41;;;19.96;100.00
39197;BME280;42889;51.112;13.772;2022-08-19T08:20:37;98614.84;;;19.89;100.00
39197;BME280;42889;51.112;13.772;2022-08-19T08:23:04;98612.72;;;19.91;100.00
39197;BME280;42889;51.112;13.772;2022-08-19T08:25:49;98612.94;;;19.89;100.00
39197;BME280;42889;51.112;13.772;2022-08-19T08:28:17;98620.91;;;19.91;100.00
39197;BME280;42889;51.112;13.772;2022-08-19T08:30:46;98623.88;;;19.89;100.00
39197;BME280;42889;51.112;13.772;2022-08-19T08:33:21;98629.81;;;19.98;100.00
39197;BME280;42889;51.112;13.772;2022-08-19T08:36:10;98631.88;;;20.03;100.00
39197;BME280;42889;51.112;13.772;2022-08-19T08:38:37;98636.50;;;20.02;100.00
39197;BME280;42889;51.112;13.772;2022-08-19T08:43:39;98635.66;;;20.02;100.00
39197;BME280;42889;51.112;13.772;2022-08-19T08:49:02;98654.72;;;20.20;100.00
39197;BME280;42889;51.112;13.772;2022-08-19T08:51:40;98660.66;;;20.17;100.00
39197;BME280;42889;51.112;13.772;2022-08-19T08:54:11;98655.56;;;20.20;100.00
39197;BME280;42889;51.112;13.772;2022-08-19T08:56:39;98650.59;;;20.29;100.00
39197;BME280;42889;51.112;13.772;2022-08-19T08:59:12;98654.19;;;20.41;100.00
39197;BME280;42889;51.112;13.772;2022-08-19T09:01:43;98648.44;;;20.49;100.00
39197;BME280;42889;51.112;13.772;2022-08-19T09:04:11;98658.69;;;20.66;100.00
39197;BME280;42889;51.112;13.772;2022-08-19T09:09:24;98667.34;;;20.74;100.00
39197;BME280;42889;51.112;13.772;2022-08-19T09:14:57;98672.38;;;20.89;100.00
39197;BME280;42889;51.112;13.772;2022-08-19T09:17:27;98673.56;;;21.05;100.00
39197;BME280;42889;51.112;13.772;2022-08-19T09:20:23;98675.69;;;21.26;100.00
39197;BME280;42889;51.112;13.772;2022-08-19T09:22:51;98673.44;;;21.35;100.00
39197;BME280;42889;51.112;13.772;2022-08-19T09:25:21;98683.28;;;21.48;100.00
39197;BME280;42889;51.112;13.772;2022-08-19T09:27:55;98673.53;;;21.52;99.83
39197;BME280;42889;51.112;13.772;2022-08-19T09:30:31;98660.66;;;21.64;100.00
39197;BME280;42889;51.112;13.772;2022-08-19T09:32:59;98659.97;;;21.45;100.00
39197;BME280;42889;51.112;13.772;2022-08-19T09:35:28;98656.03;;;21.53;99.79
39197;BME280;42889;51.112;13.772;2022-08-19T09:37:57;98652.75;;;21.39;100.00
39197;BME280;42889;51.112;13.772;2022-08-19T09:40:26;98642.50;;;21.35;100.00
39197;BME280;42889;51.112;13.772;2022-08-19T09:42:55;98642.16;;;21.31;100.00
39197;BME280;42889;51.112;13.772;2022-08-19T09:45:23;98645.25;;;21.35;100.00
39197;BME280;42889;51.112;13.772;2022-08-19T09:47:51;98640.47;;;21.42;100.00
39197;BME280;42889;51.112;13.772;2022-08-19T09:50:21;98639.03;;;21.51;100.00
39197;BME280;42889;51.112;13.772;2022-08-19T09:52:48;98643.84;;;21.72;98.69
39197;BME280;42889;51.112;13.772;2022-08-19T09:55:22;98644.44;;;21.74;98.13
39197;BME280;42889;51.112;13.772;2022-08-19T09:57:58;98650.63;;;21.81;99.24
39197;BME280;42889;51.112;13.772;2022-08-19T10:00:24;98644.00;;;21.66;99.77
39197;BME280;42889;51.112;13.772;2022-08-19T10:02:51;98657.03;;;21.87;97.83
39197;BME280;42889;51.112;13.772;2022-08-19T10:05:18;98654.72;;;21.96;96.57
39197;BME280;42889;51.112;13.772;2022-08-19T10:08:08;98671.88;;;21.91;97.79
39197;BME280;42889;51.112;13.772;2022-08-19T10:10:41;98673.22;;;21.89;95.28
39197;BME280;42889;51.112;13.772;2022-08-19T10:13:14;98664.75;;;21.90;95.83
39197;BME280;42889;51.112;13.772;2022-08-19T10:15:40;98660.28;;;22.01;96.19
39197;BME280;42889;51.112;13.772;2022-08-19T10:18:14;98664.44;;;22.15;93.66
39197;BME280;42889;51.112;13.772;2022-08-19T10:20:40;98665.38;;;22.21;93.01
39197;BME280;42889;51.112;13.772;2022-08-19T10:23:09;98665.63;;;22.07;93.55
39197;BME280;42889;51.112;13.772;2022-08-19T10:25:35;98667.59;;;21.95;94.34
39197;BME280;42889;51.112;13.772;2022-08-19T10:28:04;98672.81;;;21.97;94.58
39197;BME280;42889;51.112;13.772;2022-08-19T10:30:36;98673.84;;;22.07;92.19
39197;BME280;42889;51.112;13.772;2022-08-19T10:33:03;98691.50;;;22.12;92.40
39197;BME280;42889;51.112;13.772;2022-08-19T10:35:36;98687.25;;;22.32;90.68
39197;BME280;42889;51.112;13.772;2022-08-19T10:38:21;98689.91;;;22.44;89.43
39197;BME280;42889;51.112;13.772;2022-08-19T10:40:57;98693.59;;;22.50;88.67
39197;BME280;42889;51.112;13.772;2022-08-19T10:43:24;98689.78;;;22.68;88.13
39197;BME280;42889;51.112;13.772;2022-08-19T10:45:54;98681.84;;;23.00;86.88
39197;BME280;42889;51.112;13.772;2022-08-19T10:48:28;98688.94;;;23.34;85.07
39197;BME280;42889;51.112;13.772;2022-08-19T10:50:57;98685.28;;;23.67;81.41
39197;BME280;42889;51.112;13.772;2022-08-19T10:53:49;98679.28;;;24.14;78.29
39197;BME280;42889;51.112;13.772;2022-08-19T10:56:17;98694.22;;;24.24;76.72
39197;BME280;42889;51.112;13.772;2022-08-19T10:59:03;98695.84;;;23.98;76.33
39197;BME280;42889;51.112;13.772;2022-08-19T11:01:31;98696.75;;;23.81;78.33
39197;BME280;42889;51.112;13.772;2022-08-19T11:04:00;98695.22;;;23.69;78.37
39197;BME280;42889;51.112;13.772;2022-08-19T11:06:28;98704.03;;;23.54;79.23
39197;BME280;42889;51.112;13.772;2022-08-19T11:08:54;98703.34;;;23.25;80.65
39197;BME280;42889;51.112;13.772;2022-08-19T11:11:21;98708.16;;;23.18;82.42
39197;BME280;42889;51.112;13.772;2022-08-19T11:13:48;98717.69;;;22.93;82.62
39197;BME280;42889;51.112;13.772;2022-08-19T11:16:23;98719.88;;;22.79;83.55
39197;BME280;42889;51.112;13.772;2022-08-19T11:18:54;98722.59;;;22.62;84.99
39197;BME280;42889;51.112;13.772;2022-08-19T11:21:31;98716.88;;;22.64;85.52
39197;BME280;42889;51.112;13.772;2022-08-19T11:24:02;98721.56;;;22.52;85.69
39197;BME280;42889;51.112;13.772;2022-08-19T11:26:30;98729.00;;;22.68;84.35
39197;BME280;42889;51.112;13.772;2022-08-19T11:28:58;98730.47;;;22.87;83.31
39197;BME280;42889;51.112;13.772;2022-08-19T11:31:28;98738.16;;;23.02;nan
39197;BME280;42889;51.112;13.772;2022-08-19T11:33:58;98733.81;;;23.06;83.86
39197;BME280;42889;51.112;13.772;2022-08-19T11:36:26;98729.56;;;23.16;82.89
39197;BME280;42889;51.112;13.772;2022-08-19T11:38:53;98733.56;;;23.25;81.03
39197;BME280;42889;51.112;13.772;2022-08-19T11:41:21;98736.44;;;23.18;81.19
39197;BME280;42889;51.112;13.772;2022-08-19T11:43:50;98744.47;;;23.03;82.95
39197;BME280;42889;51.112;13.772;2022-08-19T11:46:19;98742.84;;;22.90;83.57
39197;BME280;42889;51.112;13.772;2022-08-19T11:48:46;98741.81;;;22.91;83.48
39197;BME280;42889;51.112;13.772;2022-08-19T11:51:17;98733.28;;;22.76;84.61
39197;BME280;42889;51.112;13.772;2022-08-19T11:53:45;98721.28;;;22.65;84.34
39197;BME280;42889;51.112;13.772;2022-08-19T11:56:12;98724.53;;;22.79;83.81
39197;BME280;42889;51.112;13.772;2022-08-19T11:58:39;98734.16;;;22.65;85.38
39197;BME280;42889;51.112;13.772;2022-08-19T12:01:12;98740.28;;;22.55;85.26
39197;BME280;42889;51.112;13.772;2022-08-19T12:03:45;98736.88;;;22.48;87.01
39197;BME280;42889;51.112;13.772;2022-08-19T12:06:16;98739.88;;;22.63;85.74
39197;BME280;42889;51.112;13.772;2022-08-19T12:08:43;98743.88;;;22.55;85.77
39197;BME280;42889;51.112;13.772;2022-08-19T12:11:14;98750.81;;;22.46;85.26
39197;BME280;42889;51.112;13.772;2022-08-19T12:13:42;98753.13;;;22.38;87.02
39197;BME280;42889;51.112;13.772;2022-08-19T12:16:15;98741.13;;;22.27;87.70
39197;BME280;42889;51.112;13.772;2022-08-19T12:18:42;98747.50;;;22.44;87.48
39197;BME280;42889;51.112;13.772;2022-08-19T12:21:13;98753.50;;;22.29;87.06
39197;BME280;42889;51.112;13.772;2022-08-19T12:23:41;98763.09;;;22.15;88.34
39197;BME280;42889;51.112;13.772;2022-08-19T12:26:09;98762.59;;;22.06;89.54
39197;BME280;42889;51.112;13.772;2022-08-19T12:28:36;98762.03;;;22.04;89.69
39197;BME280;42889;51.112;13.772;2022-08-19T12:31:04;98768.81;;;22.25;88.82
39197;BME280;42889;51.112;13.772;2022-08-19T12:33:31;98755.50;;;22.62;86.64
39197;BME280;42889;51.112;13.772;2022-08-19T12:36:03;98754.09;;;22.88;86.00
39197;BME280;42889;51.112;13.772;2022-08-19T12:38:32;98756.44;;;23.13;83.12
39197;BME280;42889;51.112;13.772;2022-08-19T12:41:00;98760.56;;;23.33;82.57
39197;BME280;42889;51.112;13.772;2022-08-19T12:43:29;98758.00;;;23.43;80.68
39197;BME280;42889;51.112;13.772;2022-08-19T12:45:56;98754.66;;;23.58;79.78
39197;BME280;42889;51.112;13.772;2022-08-19T12:48:23;98760.06;;;23.70;78.93
39197;BME280;42889;51.112;13.772;2022-08-19T12:51:05;98759.03;;;23.76;78.98
39197;BME280;42889;51.112;13.772;2022-08-19T12:53:32;98759.53;;;23.73;77.75
39197;BME280;42889;51.112;13.772;2022-08-19T12:55:59;98762.56;;;23.54;78.60
39197;BME280;42889;51.112;13.772;2022-08-19T12:58:27;98764.06;;;23.28;78.94
39197;BME280;42889;51.112;13.772;2022-08-19T13:00:55;98757.94;;;23.21;80.03
39197;BME280;42889;51.112;13.772;2022-08-19T13:03:21;98754.34;;;23.21;80.00
39197;BME280;42889;51.112;13.772;2022-08-19T13:05:55;98748.44;;;23.12;80.30
39197;BME280;42889;51.112;13.772;2022-08-19T13:08:22;98755.28;;;23.09;80.69
39197;BME280;42889;51.112;13.772;2022-08-19T13:10:49;98761.72;;;22.86;81.77
39197;BME280;42889;51.112;13.772;2022-08-19T13:13:16;98761.84;;;22.80;81.23
39197;BME280;42889;51.112;13.772;2022-08-19T13:15:43;98756.31;;;22.75;81.46